createdAt,value
2022-09-25T00:01:25.682Z,9.60
2022-09-25T00:03:53.817Z,9.50
2022-09-25T00:06:24.091Z,9.60
2022-09-25T00:08:52.825Z,9.70
2022-09-25T00:11:25.007Z,9.60
2022-09-25T00:13:53.424Z,9.60
2022-09-25T00:16:23.862Z,9.60
2022-09-25T00:19:10.163Z,9.50
2022-09-25T00:21:38.956Z,9.40
2022-09-25T00:24:09.629Z,9.40
2022-09-25T00:26:40.948Z,9.40
2022-09-25T00:29:10.637Z,9.30
2022-09-25T00:31:38.767Z,9.30
2022-09-25T00:34:07.159Z,9.20
2022-09-25T00:36:35.550Z,9.20
2022-09-25T00:39:03.971Z,9.00
2022-09-25T00:41:32.975Z,8.90
2022-09-25T00:44:04.282Z,8.90
2022-09-25T00:46:35.850Z,8.90
2022-09-25T00:49:06.945Z,8.90
2022-09-25T00:51:41.015Z,8.90
2022-09-25T00:54:14.604Z,8.80
2022-09-25T00:56:46.169Z,8.80
2022-09-25T00:59:20.463Z,8.90
2022-09-25T01:01:49.006Z,9.00
2022-09-25T01:04:18.281Z,9.00
2022-09-25T01:06:46.503Z,9.10
2022-09-25T01:09:14.565Z,9.00
2022-09-25T01:11:42.698Z,9.10
2022-09-25T01:14:12.370Z,9.10
2022-09-25T01:16:48.117Z,9.00
2022-09-25T01:19:32.300Z,9.10
2022-09-25T01:22:11.560Z,9.10
2022-09-25T01:25:04.246Z,9.10
2022-09-25T01:27:40.763Z,9.10
2022-09-25T01:30:13.301Z,8.90
2022-09-25T01:32:52.630Z,8.80
2022-09-25T01:35:31.662Z,8.90
2022-09-25T01:38:06.215Z,8.90
2022-09-25T01:40:38.834Z,8.90
2022-09-25T01:43:11.610Z,8.80
2022-09-25T01:45:45.060Z,8.90
2022-09-25T01:48:17.579Z,8.80
2022-09-25T01:50:51.264Z,8.70
2022-09-25T01:53:24.758Z,8.60
2022-09-25T01:55:58.987Z,8.40
2022-09-25T01:58:31.670Z,8.20
2022-09-25T02:01:07.736Z,8.30
2022-09-25T02:03:44.052Z,8.20
2022-09-25T02:06:16.168Z,8.10
2022-09-25T02:08:49.202Z,8.00
2022-09-25T02:11:17.384Z,8.10
2022-09-25T02:13:49.748Z,8.00
2022-09-25T02:16:23.775Z,7.90
2022-09-25T02:19:14.609Z,7.80
2022-09-25T02:21:50.410Z,7.70
2022-09-25T02:24:25.603Z,7.50
2022-09-25T02:26:54.228Z,7.60
2022-09-25T02:29:23.248Z,7.50
2022-09-25T02:31:57.535Z,7.30
2022-09-25T02:34:25.662Z,7.20
2022-09-25T02:36:53.799Z,7.30
2022-09-25T02:39:24.742Z,7.20
2022-09-25T02:42:10.367Z,7.00
2022-09-25T02:44:52.029Z,7.40
2022-09-25T02:47:33.048Z,7.30
2022-09-25T02:50:12.869Z,7.30
2022-09-25T02:52:50.140Z,7.20
2022-09-25T02:55:25.892Z,7.20
2022-09-25T02:57:58.027Z,7.20
2022-09-25T03:00:27.125Z,7.20
2022-09-25T03:03:00.146Z,7.30
2022-09-25T03:05:28.413Z,7.20
2022-09-25T03:08:14.178Z,7.20
2022-09-25T03:10:46.187Z,7.30
2022-09-25T03:13:15.730Z,7.30
2022-09-25T03:15:46.279Z,7.40
2022-09-25T03:18:16.769Z,7.40
2022-09-25T03:20:44.871Z,7.50
2022-09-25T03:23:12.915Z,7.50
2022-09-25T03:25:44.696Z,7.50
2022-09-25T03:28:16.339Z,7.50
2022-09-25T03:30:45.621Z,7.50
2022-09-25T03:33:16.743Z,7.50
2022-09-25T03:35:44.882Z,7.50
2022-09-25T03:38:12.878Z,7.40
2022-09-25T03:40:41.392Z,7.40
2022-09-25T03:45:36.531Z,7.40
2022-09-25T03:48:04.657Z,7.30
2022-09-25T03:50:34.203Z,7.30
2022-09-25T03:53:02.302Z,7.20
2022-09-25T03:55:30.339Z,7.20
2022-09-25T03:57:58.354Z,7.10
2022-09-25T04:00:26.430Z,7.00
2022-09-25T04:02:54.632Z,7.00
2022-09-25T04:05:22.725Z,7.00
2022-09-25T04:07:52.109Z,7.00
2022-09-25T04:10:20.256Z,7.00
2022-09-25T04:12:48.248Z,6.90
2022-09-25T04:15:16.441Z,7.00
2022-09-25T04:17:44.437Z,6.90
2022-09-25T04:20:12.651Z,6.80
2022-09-25T04:22:40.649Z,6.90
2022-09-25T04:25:11.093Z,6.80
2022-09-25T04:27:39.278Z,6.80
2022-09-25T04:30:08.509Z,6.80
2022-09-25T04:32:53.807Z,6.80
2022-09-25T04:35:21.879Z,6.80
2022-09-25T04:37:49.979Z,6.80
2022-09-25T04:40:19.504Z,7.00
2022-09-25T04:42:47.561Z,6.80
2022-09-25T04:45:16.026Z,6.90
2022-09-25T04:47:44.135Z,6.90
2022-09-25T04:50:12.224Z,6.90
2022-09-25T04:52:40.315Z,6.90
2022-09-25T04:55:08.938Z,6.80
2022-09-25T04:57:57.237Z,6.90
2022-09-25T05:00:29.386Z,7.00
2022-09-25T05:02:58.000Z,6.90
2022-09-25T05:05:28.008Z,7.00
2022-09-25T05:07:57.253Z,7.00
2022-09-25T05:10:27.295Z,7.00
2022-09-25T05:12:58.255Z,7.00
2022-09-25T05:15:27.690Z,7.00
2022-09-25T05:18:01.334Z,7.00
2022-09-25T05:20:29.945Z,7.00
2022-09-25T05:22:59.263Z,7.20
2022-09-25T05:25:28.188Z,7.10
2022-09-25T05:27:59.343Z,7.20
2022-09-25T05:30:29.045Z,7.10
2022-09-25T05:32:59.159Z,7.10
2022-09-25T05:35:28.834Z,7.20
2022-09-25T05:37:56.897Z,7.20
2022-09-25T05:40:25.415Z,7.20
2022-09-25T05:42:55.201Z,7.10
2022-09-25T05:45:24.996Z,7.20
2022-09-25T05:48:02.642Z,7.20
2022-09-25T05:50:32.323Z,7.20
2022-09-25T05:53:01.813Z,7.10
2022-09-25T05:55:30.592Z,7.30
2022-09-25T05:58:01.917Z,7.30
2022-09-25T06:00:32.567Z,7.40
2022-09-25T06:03:01.129Z,7.40
2022-09-25T06:05:29.863Z,7.40
2022-09-25T06:07:57.970Z,7.50
2022-09-25T06:10:27.126Z,7.60
2022-09-25T06:12:59.628Z,7.60
2022-09-25T06:15:28.096Z,7.60
2022-09-25T06:17:57.913Z,7.70
2022-09-25T06:20:26.115Z,7.80
2022-09-25T06:22:54.988Z,7.90
2022-09-25T06:25:23.837Z,7.90
2022-09-25T06:27:54.613Z,7.90
2022-09-25T06:30:23.217Z,7.90
2022-09-25T06:32:59.716Z,7.90
2022-09-25T06:35:29.219Z,7.90
2022-09-25T06:37:59.366Z,7.90
2022-09-25T06:40:29.184Z,7.90
2022-09-25T06:42:57.868Z,7.90
2022-09-25T06:45:26.800Z,7.90
2022-09-25T06:47:57.789Z,7.90
2022-09-25T06:50:31.856Z,7.90
2022-09-25T06:53:00.567Z,7.90
2022-09-25T06:55:29.046Z,8.00
2022-09-25T06:57:57.175Z,8.00
2022-09-25T07:00:25.295Z,8.10
2022-09-25T07:03:10.685Z,8.10
2022-09-25T07:05:40.243Z,8.20
2022-09-25T07:08:08.284Z,8.20
2022-09-25T07:10:36.297Z,8.20
2022-09-25T07:13:04.729Z,8.60
2022-09-25T07:15:32.861Z,8.90
2022-09-25T07:18:00.983Z,9.00
2022-09-25T07:20:29.022Z,9.20
2022-09-25T07:23:03.902Z,9.20
2022-09-25T07:25:32.863Z,9.20
2022-09-25T07:28:01.038Z,9.30
2022-09-25T07:30:29.874Z,9.50
2022-09-25T07:33:00.258Z,9.60
2022-09-25T07:35:28.519Z,9.60
2022-09-25T07:37:57.390Z,9.80
2022-09-25T07:40:27.365Z,9.90
2022-09-25T07:42:59.540Z,10.00
2022-09-25T07:45:27.622Z,10.00
2022-09-25T07:47:57.544Z,10.00
2022-09-25T07:50:25.711Z,10.20
2022-09-25T07:52:54.923Z,10.30
2022-09-25T07:55:23.735Z,10.50
2022-09-25T07:57:57.236Z,10.80
2022-09-25T08:00:25.718Z,11.10
2022-09-25T08:02:58.750Z,11.00
2022-09-25T08:05:27.889Z,11.30
2022-09-25T08:07:56.569Z,11.40
2022-09-25T08:10:24.680Z,10.90
2022-09-25T08:12:54.239Z,10.70
2022-09-25T08:15:22.586Z,10.60
2022-09-25T08:17:50.657Z,10.80
2022-09-25T08:20:19.276Z,10.80
2022-09-25T08:22:47.665Z,11.40
2022-09-25T08:25:15.943Z,11.70
2022-09-25T08:27:43.958Z,12.00
2022-09-25T08:30:13.889Z,12.20
2022-09-25T08:32:42.089Z,12.30
2022-09-25T08:35:10.675Z,12.10
2022-09-25T08:37:41.897Z,12.20
2022-09-25T08:40:19.194Z,12.30
2022-09-25T08:42:50.717Z,12.40
2022-09-25T08:45:45.039Z,12.40
2022-09-25T08:48:39.769Z,12.60
2022-09-25T08:51:09.987Z,12.90
2022-09-25T08:53:40.049Z,12.90
2022-09-25T08:56:18.579Z,12.60
2022-09-25T08:58:52.637Z,12.70
2022-09-25T09:01:25.610Z,12.90
2022-09-25T09:04:02.546Z,12.90
2022-09-25T09:06:32.548Z,12.50
2022-09-25T09:09:16.682Z,12.80
2022-09-25T09:11:49.459Z,12.60
2022-09-25T09:14:20.500Z,12.40
2022-09-25T09:16:56.131Z,12.40
2022-09-25T09:19:24.541Z,12.20
2022-09-25T09:22:00.779Z,12.40
2022-09-25T09:24:39.479Z,12.80
2022-09-25T09:27:24.685Z,12.40
2022-09-25T09:30:05.816Z,12.40
2022-09-25T09:33:00.203Z,12.50
2022-09-25T09:35:40.086Z,12.40
2022-09-25T09:38:19.817Z,12.20
2022-09-25T09:41:12.969Z,12.10
2022-09-25T09:43:57.886Z,12.10
2022-09-25T09:46:35.478Z,12.30
2022-09-25T09:49:12.773Z,12.70
2022-09-25T09:51:44.111Z,12.90
2022-09-25T09:54:17.192Z,13.20
2022-09-25T09:56:49.695Z,12.90
2022-09-25T09:59:20.917Z,13.10
2022-09-25T10:02:00.621Z,13.30
2022-09-25T10:04:35.047Z,13.20
2022-09-25T10:07:07.573Z,13.30
2022-09-25T10:09:37.230Z,13.00
2022-09-25T10:12:09.148Z,13.20
2022-09-25T10:14:40.396Z,13.60
2022-09-25T10:17:11.496Z,13.80
2022-09-25T10:19:48.644Z,13.80
2022-09-25T10:22:20.724Z,14.20
2022-09-25T10:24:52.679Z,14.50
2022-09-25T10:27:33.137Z,14.60
2022-09-25T10:30:15.685Z,14.30
2022-09-25T10:32:46.632Z,14.60
2022-09-25T10:35:21.813Z,14.50
2022-09-25T10:37:52.845Z,14.50
2022-09-25T10:40:28.162Z,14.60
2022-09-25T10:43:05.587Z,14.60
2022-09-25T10:45:36.033Z,14.90
2022-09-25T10:48:42.920Z,15.20
2022-09-25T10:51:16.570Z,15.10
2022-09-25T10:53:45.858Z,14.40
2022-09-25T10:56:18.549Z,14.70
2022-09-25T10:58:50.211Z,14.40
2022-09-25T11:01:18.929Z,14.50
2022-09-25T11:03:53.458Z,14.30
2022-09-25T11:06:26.936Z,14.40
2022-09-25T11:09:07.724Z,14.60
2022-09-25T11:11:37.680Z,15.10
2022-09-25T11:14:08.119Z,15.00
2022-09-25T11:16:47.585Z,14.80
2022-09-25T11:19:21.062Z,14.80
2022-09-25T11:22:00.333Z,14.20
2022-09-25T11:24:37.319Z,14.40
2022-09-25T11:27:13.486Z,14.60
2022-09-25T11:29:50.081Z,14.60
2022-09-25T11:32:25.293Z,14.50
2022-09-25T11:35:07.290Z,15.20
2022-09-25T11:37:45.918Z,15.90
2022-09-25T11:40:48.068Z,16.10
2022-09-25T11:43:20.464Z,15.20
2022-09-25T11:45:54.341Z,15.50
2022-09-25T11:48:29.063Z,16.00
2022-09-25T11:51:06.039Z,16.50
2022-09-25T11:53:43.605Z,16.60
2022-09-25T11:56:22.853Z,16.60
2022-09-25T11:59:08.333Z,16.80
2022-09-25T12:01:41.102Z,16.70
2022-09-25T12:04:27.567Z,16.90
2022-09-25T12:07:18.193Z,16.50
2022-09-25T12:10:12.208Z,16.40
2022-09-25T12:12:45.209Z,17.20
2022-09-25T12:15:22.936Z,17.20
2022-09-25T12:18:00.049Z,16.40
2022-09-25T12:20:35.144Z,17.30
2022-09-25T12:23:15.036Z,17.70
2022-09-25T12:25:59.871Z,18.10
2022-09-25T12:28:40.047Z,16.70
2022-09-25T12:31:17.537Z,16.00
2022-09-25T12:33:52.429Z,15.90
2022-09-25T12:36:25.391Z,16.10
2022-09-25T12:38:58.367Z,16.00
2022-09-25T12:41:33.338Z,16.30
2022-09-25T12:44:06.691Z,15.90
2022-09-25T12:46:43.186Z,15.80
2022-09-25T12:49:15.068Z,15.60
2022-09-25T12:51:46.738Z,15.30
2022-09-25T12:54:26.893Z,15.10
2022-09-25T12:57:01.545Z,15.60
2022-09-25T12:59:36.085Z,15.80
2022-09-25T13:02:12.772Z,15.40
2022-09-25T13:04:55.673Z,15.10
2022-09-25T13:07:40.904Z,15.10
2022-09-25T13:10:22.584Z,14.80
2022-09-25T13:12:56.391Z,14.80
2022-09-25T13:15:27.513Z,14.80
2022-09-25T13:17:56.438Z,14.80
2022-09-25T13:20:49.682Z,14.60
2022-09-25T13:23:27.207Z,14.70
2022-09-25T13:26:00.864Z,14.70
2022-09-25T13:28:34.466Z,14.70
2022-09-25T13:31:09.376Z,14.40
2022-09-25T13:33:48.649Z,14.50
2022-09-25T13:36:40.423Z,14.30
2022-09-25T13:39:37.003Z,14.30
2022-09-25T13:42:07.687Z,14.20
2022-09-25T13:44:59.009Z,14.30
2022-09-25T13:48:07.168Z,14.20
2022-09-25T13:50:38.406Z,14.20
2022-09-25T13:53:50.104Z,13.90
2022-09-25T13:56:26.119Z,14.00
2022-09-25T13:59:38.177Z,13.90
2022-09-25T14:02:39.066Z,13.90
2022-09-25T14:05:08.447Z,13.60
2022-09-25T14:07:37.764Z,13.70
2022-09-25T14:10:12.615Z,13.60
2022-09-25T14:12:45.274Z,13.50
2022-09-25T14:15:27.931Z,13.60
2022-09-25T14:18:00.854Z,13.50
2022-09-25T14:20:36.595Z,13.40
2022-09-25T14:23:12.093Z,13.50
2022-09-25T14:25:44.316Z,13.30
2022-09-25T14:28:20.668Z,13.20
2022-09-25T14:30:57.803Z,13.00
2022-09-25T14:33:45.387Z,12.90
2022-09-25T14:36:23.024Z,12.80
2022-09-25T14:39:23.132Z,12.80
2022-09-25T14:42:06.461Z,12.70
2022-09-25T14:44:54.089Z,12.80
2022-09-25T14:47:23.756Z,13.00
2022-09-25T14:49:55.018Z,13.00
2022-09-25T14:52:26.842Z,12.80
2022-09-25T14:55:00.220Z,12.80
2022-09-25T14:57:31.560Z,13.00
2022-09-25T15:00:03.665Z,13.20
2022-09-25T15:02:35.281Z,13.10
2022-09-25T15:05:26.108Z,13.00
2022-09-25T15:07:55.474Z,13.10
2022-09-25T15:10:29.573Z,13.00
2022-09-25T15:13:09.741Z,13.10
2022-09-25T15:15:39.926Z,13.00
2022-09-25T15:18:13.585Z,13.00
2022-09-25T15:20:50.224Z,13.00
2022-09-25T15:23:21.384Z,12.90
2022-09-25T15:25:52.365Z,13.00
2022-09-25T15:28:23.180Z,13.10
2022-09-25T15:30:57.660Z,12.90
2022-09-25T15:33:29.240Z,12.90
2022-09-25T15:36:01.555Z,13.00
2022-09-25T15:38:30.837Z,13.10
2022-09-25T15:40:59.633Z,13.00
2022-09-25T15:43:29.967Z,13.00
2022-09-25T15:45:59.701Z,12.80
2022-09-25T15:48:32.773Z,12.70
2022-09-25T15:51:04.883Z,12.70
2022-09-25T15:53:36.162Z,12.60
2022-09-25T15:56:18.432Z,12.60
2022-09-25T15:58:51.124Z,12.60
2022-09-25T16:01:41.048Z,12.80
2022-09-25T16:04:28.893Z,12.80
2022-09-25T16:06:58.519Z,12.80
2022-09-25T16:09:31.889Z,13.10
2022-09-25T16:12:20.622Z,12.90
2022-09-25T16:14:49.626Z,12.70
2022-09-25T16:17:24.655Z,12.60
2022-09-25T16:20:07.991Z,12.50
2022-09-25T16:22:42.783Z,12.70
2022-09-25T16:25:22.023Z,13.30
2022-09-25T16:27:50.381Z,13.20
2022-09-25T16:30:22.284Z,13.00
2022-09-25T16:32:54.662Z,12.70
2022-09-25T16:35:56.878Z,12.60
2022-09-25T16:38:31.829Z,12.40
2022-09-25T16:41:05.229Z,12.30
2022-09-25T16:43:36.104Z,12.20
2022-09-25T16:46:13.968Z,12.00
2022-09-25T16:48:43.314Z,11.90
2022-09-25T16:51:21.398Z,11.80
2022-09-25T16:53:52.303Z,11.70
2022-09-25T16:56:22.773Z,11.60
2022-09-25T16:58:51.017Z,11.60
2022-09-25T17:01:19.366Z,11.50
2022-09-25T17:03:51.099Z,11.50
2022-09-25T17:06:19.647Z,11.50
2022-09-25T17:08:48.309Z,11.40
2022-09-25T17:11:19.259Z,11.40
2022-09-25T17:13:48.416Z,11.30
2022-09-25T17:16:16.543Z,11.20
2022-09-25T17:18:44.724Z,11.20
2022-09-25T17:21:15.305Z,11.10
2022-09-25T17:23:43.993Z,11.10
2022-09-25T17:26:19.076Z,11.00
2022-09-25T17:28:47.230Z,11.00
2022-09-25T17:31:18.912Z,10.90
2022-09-25T17:33:49.816Z,10.80
2022-09-25T17:36:18.065Z,10.80
2022-09-25T17:38:46.279Z,10.70
2022-09-25T17:41:20.812Z,10.70
2022-09-25T17:43:49.343Z,10.70
2022-09-25T17:46:19.161Z,10.70
2022-09-25T17:48:53.214Z,10.70
2022-09-25T17:51:24.828Z,10.70
2022-09-25T17:53:53.939Z,10.70
2022-09-25T17:56:24.410Z,10.70
2022-09-25T17:58:57.391Z,10.70
2022-09-25T18:01:28.291Z,10.70
2022-09-25T18:03:59.659Z,10.70
2022-09-25T18:06:30.580Z,10.70
2022-09-25T18:08:58.588Z,10.70
2022-09-25T18:11:28.399Z,10.60
2022-09-25T18:14:01.131Z,10.50
2022-09-25T18:16:32.037Z,10.50
2022-09-25T18:19:17.852Z,10.50
2022-09-25T18:22:03.319Z,10.40
2022-09-25T18:24:31.460Z,10.50
2022-09-25T18:27:00.964Z,10.50
2022-09-25T18:29:29.046Z,10.50
2022-09-25T18:31:57.193Z,10.50
2022-09-25T18:34:26.593Z,10.50
2022-09-25T18:36:55.033Z,10.40
2022-09-25T18:39:23.383Z,10.40
2022-09-25T18:41:51.658Z,10.40
2022-09-25T18:44:23.440Z,10.40
2022-09-25T18:46:53.000Z,10.50
2022-09-25T18:49:21.172Z,10.50
2022-09-25T18:51:49.290Z,10.50
2022-09-25T18:54:17.485Z,10.40
2022-09-25T18:56:45.865Z,10.50
2022-09-25T18:59:14.396Z,10.40
2022-09-25T19:01:44.072Z,10.40
2022-09-25T19:04:17.039Z,10.40
2022-09-25T19:06:45.981Z,10.40
2022-09-25T19:09:16.972Z,10.40
2022-09-25T19:11:45.960Z,10.40
2022-09-25T19:14:14.893Z,10.40
2022-09-25T19:16:46.207Z,10.40
2022-09-25T19:19:14.917Z,10.40
2022-09-25T19:21:44.671Z,10.40
2022-09-25T19:24:13.616Z,10.50
2022-09-25T19:26:42.754Z,10.50
2022-09-25T19:29:11.291Z,10.50
2022-09-25T19:31:39.492Z,10.50
2022-09-25T19:34:09.337Z,10.50
2022-09-25T19:36:38.595Z,10.60
2022-09-25T19:39:06.800Z,10.60
2022-09-25T19:41:37.985Z,10.60
2022-09-25T19:44:13.376Z,10.60
2022-09-25T19:46:42.022Z,10.60
2022-09-25T19:49:12.206Z,10.60
2022-09-25T19:51:41.158Z,10.60
2022-09-25T19:54:11.753Z,10.60
2022-09-25T19:56:42.220Z,10.60
2022-09-25T19:59:13.646Z,10.60
2022-09-25T20:01:42.845Z,10.60
2022-09-25T20:04:18.292Z,10.60
2022-09-25T20:06:47.691Z,10.60
2022-09-25T20:09:15.882Z,10.60
2022-09-25T20:11:43.982Z,10.60
2022-09-25T20:14:13.094Z,10.60
2022-09-25T20:16:41.259Z,10.60
2022-09-25T20:19:09.701Z,10.60
2022-09-25T20:21:41.345Z,10.50
2022-09-25T20:24:10.107Z,10.50
2022-09-25T20:26:38.567Z,10.50
2022-09-25T20:29:10.360Z,10.50
2022-09-25T20:31:39.940Z,10.60
2022-09-25T20:34:08.689Z,10.60
2022-09-25T20:36:39.173Z,10.60
2022-09-25T20:39:07.912Z,10.60
2022-09-25T20:41:36.504Z,10.60
2022-09-25T20:44:05.286Z,10.60
2022-09-25T20:46:34.160Z,10.60
2022-09-25T20:49:03.544Z,10.60
2022-09-25T20:51:34.882Z,10.60
2022-09-25T20:54:06.912Z,10.60
2022-09-25T20:56:36.092Z,10.50
2022-09-25T20:59:05.578Z,10.50
2022-09-25T21:01:36.482Z,10.40
2022-09-25T21:04:07.902Z,10.40
2022-09-25T21:06:38.139Z,10.40
2022-09-25T21:09:09.824Z,10.40
2022-09-25T21:11:40.314Z,10.40
2022-09-25T21:14:11.816Z,10.40
2022-09-25T21:16:39.986Z,10.40
2022-09-25T21:19:08.189Z,10.40
2022-09-25T21:21:36.571Z,10.40
2022-09-25T21:24:04.955Z,10.40
2022-09-25T21:26:34.723Z,10.40
2022-09-25T21:29:05.800Z,10.40
2022-09-25T21:31:37.569Z,10.40
2022-09-25T21:34:06.706Z,10.30
2022-09-25T21:36:35.299Z,10.30
2022-09-25T21:39:04.444Z,10.30
2022-09-25T21:41:34.830Z,10.30
2022-09-25T21:44:05.515Z,10.30
2022-09-25T21:46:34.833Z,10.20
2022-09-25T21:49:05.870Z,10.20
2022-09-25T21:51:35.614Z,10.20
2022-09-25T21:54:03.671Z,10.20
2022-09-25T21:56:34.289Z,10.20
2022-09-25T21:59:08.255Z,10.20
2022-09-25T22:01:39.402Z,10.20
2022-09-25T22:04:08.728Z,10.20
2022-09-25T22:06:38.907Z,10.20
2022-09-25T22:09:09.520Z,10.10
2022-09-25T22:11:40.022Z,10.10
2022-09-25T22:14:13.330Z,10.10
2022-09-25T22:16:45.235Z,10.10
2022-09-25T22:19:16.056Z,10.10
2022-09-25T22:21:45.297Z,10.10
2022-09-25T22:24:13.472Z,10.10
2022-09-25T22:26:46.339Z,10.00
2022-09-25T22:29:15.022Z,10.00
2022-09-25T22:31:44.232Z,10.00
2022-09-25T22:34:18.901Z,10.00
2022-09-25T22:36:47.715Z,10.00
2022-09-25T22:39:18.174Z,10.00
2022-09-25T22:41:50.840Z,10.00
2022-09-25T22:44:19.302Z,10.00
2022-09-25T22:46:47.474Z,10.00
2022-09-25T22:49:15.514Z,9.90
2022-09-25T22:51:43.623Z,9.90
2022-09-25T22:54:13.722Z,10.00
2022-09-25T22:56:42.435Z,9.90
2022-09-25T22:59:14.487Z,9.90
2022-09-25T23:01:46.683Z,9.90
2022-09-25T23:04:17.190Z,9.90
2022-09-25T23:06:45.277Z,9.90
2022-09-25T23:09:15.335Z,9.90
2022-09-25T23:11:43.842Z,9.90
2022-09-25T23:14:16.958Z,9.80
2022-09-25T23:16:45.853Z,9.80
2022-09-25T23:19:14.900Z,9.80
2022-09-25T23:21:43.480Z,9.70
2022-09-25T23:24:13.323Z,9.70
2022-09-25T23:26:41.632Z,9.70
2022-09-25T23:29:12.133Z,9.60
2022-09-25T23:31:42.219Z,9.60
2022-09-25T23:34:10.394Z,9.60
2022-09-25T23:36:39.106Z,9.60
2022-09-25T23:39:09.442Z,9.60
2022-09-25T23:41:39.813Z,9.60
2022-09-25T23:44:09.939Z,9.50
2022-09-25T23:46:41.593Z,9.40
2022-09-25T23:49:10.477Z,9.40
2022-09-25T23:51:38.988Z,9.40
2022-09-25T23:54:07.319Z,9.40
2022-09-25T23:56:36.489Z,9.40
2022-09-25T23:59:05.703Z,9.50
